createdAt,value
2023-01-01T00:01:48.700Z,100286.81
2023-01-01T00:04:18.823Z,100286.78
2023-01-01T00:06:48.615Z,100285.91
2023-01-01T00:09:30.745Z,100292.03
2023-01-01T00:12:03.104Z,100297.31
2023-01-01T00:14:32.829Z,100305.25
2023-01-01T00:17:02.649Z,100298.16
2023-01-01T00:19:32.374Z,100301.72
2023-01-01T00:22:09.985Z,100295.56
2023-01-01T00:24:50.699Z,100311.38
2023-01-01T00:27:23.497Z,100308.72
2023-01-01T00:29:53.220Z,100312.25
2023-01-01T00:32:23.350Z,100305.22
2023-01-01T00:34:53.244Z,100314.88
2023-01-01T00:37:22.986Z,100313.13
2023-01-01T00:39:52.679Z,100319.31
2023-01-01T00:42:25.840Z,100316.69
2023-01-01T00:44:55.564Z,100314.94
2023-01-01T00:47:25.275Z,100299.06
2023-01-01T00:49:55.006Z,100299.09
2023-01-01T00:52:24.719Z,100284.13
2023-01-01T00:54:54.427Z,100302.66
2023-01-01T00:57:26.757Z,100321.16
2023-01-01T00:59:56.461Z,100321.16
2023-01-01T01:02:26.296Z,100326.44
2023-01-01T01:04:56.393Z,100317.66
2023-01-01T01:07:26.245Z,100348.50
2023-01-01T01:09:55.988Z,100330.00
2023-01-01T01:12:28.312Z,100325.59
2023-01-01T01:14:58.023Z,100339.69
2023-01-01T01:17:27.768Z,100329.13
2023-01-01T01:19:57.492Z,100347.59
2023-01-01T01:22:28.917Z,100347.59
2023-01-01T01:24:59.238Z,100355.44
2023-01-01T01:27:31.556Z,100356.28
2023-01-01T01:30:01.288Z,100380.91
2023-01-01T01:32:30.993Z,100389.72
2023-01-01T01:35:00.702Z,100381.75
2023-01-01T01:37:30.448Z,100384.38
2023-01-01T01:40:00.194Z,100372.84
2023-01-01T01:42:32.581Z,100383.38
2023-01-01T01:45:03.971Z,100385.94
2023-01-01T01:47:38.384Z,100399.91
2023-01-01T01:50:14.348Z,100407.75
2023-01-01T01:52:55.615Z,100412.88
2023-01-01T01:55:25.590Z,100414.53
2023-01-01T01:57:58.248Z,100417.91
2023-01-01T02:00:28.133Z,100421.31
2023-01-01T02:03:03.469Z,100400.97
2023-01-01T02:05:34.438Z,100415.91
2023-01-01T02:08:06.036Z,100431.69
2023-01-01T02:10:37.382Z,100430.72
2023-01-01T02:13:09.733Z,100430.63
2023-01-01T02:15:47.365Z,100428.78
2023-01-01T02:18:21.327Z,100426.88
2023-01-01T02:20:56.884Z,100420.69
2023-01-01T02:23:52.276Z,100418.00
2023-01-01T02:26:43.532Z,100404.78
2023-01-01T02:29:25.363Z,100408.25
2023-01-01T02:32:02.603Z,100409.09
2023-01-01T02:34:38.022Z,100401.16
2023-01-01T02:37:11.608Z,100416.09
2023-01-01T02:39:47.637Z,100417.84
2023-01-01T02:42:19.619Z,100417.84
2023-01-01T02:44:55.902Z,100409.88
2023-01-01T02:47:25.732Z,100418.69
2023-01-01T02:50:05.715Z,100422.19
2023-01-01T02:53:02.963Z,100431.88
2023-01-01T02:55:44.436Z,100437.97
2023-01-01T02:58:35.758Z,100437.97
2023-01-01T03:01:16.043Z,100447.59
2023-01-01T03:03:54.627Z,100452.88
2023-01-01T03:06:36.928Z,100445.78
2023-01-01T03:09:17.635Z,100455.41
2023-01-01T03:11:59.863Z,100457.22
2023-01-01T03:14:40.862Z,100466.84
2023-01-01T03:17:20.830Z,100464.19
2023-01-01T03:19:52.290Z,100472.09
2023-01-01T03:22:24.570Z,100459.78
2023-01-01T03:24:57.203Z,100452.72
2023-01-01T03:27:33.063Z,100459.69
2023-01-01T03:30:08.406Z,100459.66
2023-01-01T03:32:56.671Z,100464.88
2023-01-01T03:35:30.383Z,100450.75
2023-01-01T03:38:03.488Z,100463.94
2023-01-01T03:40:36.997Z,100455.09
2023-01-01T03:43:11.088Z,100455.09
2023-01-01T03:45:44.662Z,100457.75
2023-01-01T03:48:17.189Z,100438.44
2023-01-01T03:50:58.995Z,100453.41
2023-01-01T03:53:41.710Z,100457.84
2023-01-01T03:56:20.682Z,100451.63
2023-01-01T03:58:55.795Z,100449.88
2023-01-01T04:01:29.495Z,100472.72
2023-01-01T04:04:03.945Z,100462.19
2023-01-01T04:06:35.632Z,100473.66
2023-01-01T04:09:07.443Z,100473.66
2023-01-01T04:11:52.459Z,100474.53
2023-01-01T04:14:32.338Z,100484.22
2023-01-01T04:17:02.931Z,100483.31
2023-01-01T04:19:35.467Z,100481.56
2023-01-01T04:22:06.164Z,100486.84
2023-01-01T04:24:35.892Z,100486.84
2023-01-01T04:27:05.637Z,100500.03
2023-01-01T04:29:36.411Z,100497.34
2023-01-01T04:32:06.293Z,100487.66
2023-01-01T04:34:38.618Z,100459.56
2023-01-01T04:37:13.187Z,100486.84
2023-01-01T04:39:43.601Z,100478.94
2023-01-01T04:42:13.343Z,100470.16
2023-01-01T04:44:43.109Z,100479.81
2023-01-01T04:47:13.260Z,100479.81
2023-01-01T04:49:45.604Z,100507.06
2023-01-01T04:52:15.361Z,100482.44
2023-01-01T04:54:45.105Z,100502.66
2023-01-01T04:57:14.904Z,100524.59
2023-01-01T04:59:44.812Z,100499.16
2023-01-01T05:02:14.589Z,100502.66
2023-01-01T05:04:47.031Z,100521.19
2023-01-01T05:07:16.744Z,100525.56
2023-01-01T05:09:46.471Z,100529.97
2023-01-01T05:12:16.250Z,100536.13
2023-01-01T05:14:46.036Z,100535.28
2023-01-01T05:17:15.779Z,100530.91
2023-01-01T05:19:48.182Z,100535.28
2023-01-01T05:22:17.911Z,100533.53
2023-01-01T05:24:47.901Z,100545.88
2023-01-01T05:27:17.664Z,100553.81
2023-01-01T05:29:47.391Z,100553.81
2023-01-01T05:34:48.304Z,100563.53
2023-01-01T05:37:18.073Z,100570.63
2023-01-01T05:39:48.167Z,100570.66
2023-01-01T05:42:19.000Z,100571.50
2023-01-01T05:44:48.787Z,100568.03
2023-01-01T05:47:18.924Z,100571.53
2023-01-01T05:49:51.276Z,100582.94
2023-01-01T05:52:26.310Z,100587.31
2023-01-01T05:54:58.413Z,100590.78
2023-01-01T05:57:28.266Z,100586.38
2023-01-01T05:59:58.022Z,100589.84
2023-01-01T06:02:27.820Z,100594.19
2023-01-01T06:05:00.252Z,100596.78
2023-01-01T06:07:29.984Z,100601.97
2023-01-01T06:09:59.709Z,100619.50
2023-01-01T06:12:29.471Z,100617.69
2023-01-01T06:14:59.170Z,100622.84
2023-01-01T06:17:28.905Z,100618.41
2023-01-01T06:20:01.233Z,100618.34
2023-01-01T06:22:31.058Z,100635.78
2023-01-01T06:25:00.753Z,100649.72
2023-01-01T06:27:30.460Z,100662.88
2023-01-01T06:30:00.540Z,100680.41
2023-01-01T06:32:30.424Z,100661.91
2023-01-01T06:35:02.993Z,100684.66
2023-01-01T06:37:32.724Z,100688.16
2023-01-01T06:40:02.450Z,100688.16
2023-01-01T06:42:34.181Z,100696.88
2023-01-01T06:45:04.036Z,100703.94
2023-01-01T06:47:37.035Z,100713.59
2023-01-01T06:50:10.815Z,100703.88
2023-01-01T06:52:40.566Z,100714.34
2023-01-01T06:55:11.236Z,100714.31
2023-01-01T06:57:41.046Z,100714.28
2023-01-01T07:00:12.205Z,100719.44
2023-01-01T07:02:42.047Z,100724.66
2023-01-01T07:05:14.707Z,100725.53
2023-01-01T07:07:44.556Z,100738.63
2023-01-01T07:10:14.406Z,100754.44
2023-01-01T07:12:44.129Z,100742.94
2023-01-01T07:15:14.746Z,100749.94
2023-01-01T07:17:44.497Z,100750.75
2023-01-01T07:20:17.078Z,100759.50
2023-01-01T07:22:46.835Z,100770.94
2023-01-01T07:25:18.377Z,100788.44
2023-01-01T07:27:48.115Z,100801.59
2023-01-01T07:30:18.186Z,100812.13
2023-01-01T07:32:47.911Z,100809.47
2023-01-01T07:35:20.350Z,100810.31
2023-01-01T07:37:50.063Z,100816.38
2023-01-01T07:40:19.911Z,100826.91
2023-01-01T07:42:49.608Z,100838.25
2023-01-01T07:45:20.671Z,100840.00
2023-01-01T07:47:53.748Z,100844.34
2023-01-01T07:50:27.559Z,100840.81
2023-01-01T07:52:57.404Z,100844.31
2023-01-01T07:55:27.723Z,100850.41
2023-01-01T07:57:57.446Z,100860.06
2023-01-01T08:00:27.154Z,100865.31
2023-01-01T08:02:57.046Z,100869.72
2023-01-01T08:05:29.484Z,100879.34
2023-01-01T08:07:59.394Z,100894.22
2023-01-01T08:10:29.173Z,100905.59
2023-01-01T08:13:02.631Z,100915.22
2023-01-01T08:15:32.618Z,100926.69
2023-01-01T08:18:03.261Z,100940.66
2023-01-01T08:20:36.614Z,100948.56
2023-01-01T08:23:07.607Z,100959.03
2023-01-01T08:25:38.048Z,100955.44
2023-01-01T08:28:08.100Z,100950.13
2023-01-01T08:30:37.876Z,100943.94
2023-01-01T08:33:07.612Z,100952.72
2023-01-01T08:35:44.130Z,100939.59
2023-01-01T08:38:15.651Z,100951.03
2023-01-01T08:40:45.426Z,100956.28
2023-01-01T08:43:15.146Z,100958.06
2023-01-01T08:45:45.495Z,100971.31
2023-01-01T08:48:15.196Z,100959.91
2023-01-01T08:50:47.565Z,100965.25
2023-01-01T08:53:17.279Z,100971.38
2023-01-01T08:55:47.004Z,100974.09
2023-01-01T08:58:16.715Z,100970.59
2023-01-01T09:00:46.426Z,100967.06
2023-01-01T09:03:16.335Z,100984.63
2023-01-01T09:05:48.924Z,100980.19
2023-01-01T09:08:19.446Z,100982.88
2023-01-01T09:10:49.574Z,101003.97
2023-01-01T09:13:23.474Z,101007.47
2023-01-01T09:15:53.335Z,101003.06
2023-01-01T09:18:23.243Z,101003.94
2023-01-01T09:20:55.596Z,101015.44
2023-01-01T09:23:25.289Z,101033.88
2023-01-01T09:25:55.037Z,101023.38
2023-01-01T09:28:26.114Z,101033.00
2023-01-01T09:30:55.966Z,101027.69
2023-01-01T09:33:25.693Z,101036.53
2023-01-01T09:35:58.044Z,101032.22
2023-01-01T09:38:27.799Z,101051.53
2023-01-01T09:41:09.769Z,101040.06
2023-01-01T09:43:47.954Z,101023.38
2023-01-01T09:46:18.120Z,101026.94
2023-01-01T09:48:53.814Z,101038.38
2023-01-01T09:51:29.274Z,101035.75
2023-01-01T09:54:04.577Z,101041.06
2023-01-01T09:56:36.396Z,101037.59
2023-01-01T09:59:06.328Z,101030.63
2023-01-01T10:01:45.601Z,101042.06
2023-01-01T10:04:36.954Z,101042.16
2023-01-01T10:07:17.703Z,101034.22
2023-01-01T10:09:57.015Z,101043.97
2023-01-01T10:12:39.615Z,101045.72
2023-01-01T10:15:17.125Z,101049.41
2023-01-01T10:17:49.666Z,101042.44
2023-01-01T10:20:24.891Z,101046.03
2023-01-01T10:23:01.234Z,101044.34
2023-01-01T10:25:34.597Z,101044.38
2023-01-01T10:28:07.798Z,101056.78
2023-01-01T10:30:37.542Z,101056.00
2023-01-01T10:33:15.208Z,101049.03
2023-01-01T10:35:50.611Z,101050.84
2023-01-01T10:38:26.605Z,101059.66
2023-01-01T10:41:03.168Z,101068.53
2023-01-01T10:43:32.901Z,101070.34
2023-01-01T10:46:04.935Z,101072.97
2023-01-01T10:48:36.522Z,101081.78
2023-01-01T10:51:09.713Z,101085.34
2023-01-01T10:53:44.807Z,101082.81
2023-01-01T10:56:16.458Z,101074.91
2023-01-01T10:58:48.634Z,101090.72
2023-01-01T11:01:24.947Z,101093.38
2023-01-01T11:04:01.948Z,101084.66
2023-01-01T11:06:35.718Z,101081.94
2023-01-01T11:09:22.182Z,101076.66
2023-01-01T11:12:05.357Z,101077.44
2023-01-01T11:14:41.899Z,101080.03
2023-01-01T11:17:12.647Z,101096.69
2023-01-01T11:19:50.773Z,101096.69
2023-01-01T11:22:44.103Z,101101.03
2023-01-01T11:25:28.117Z,101108.03
2023-01-01T11:28:21.408Z,101111.47
2023-01-01T11:31:03.908Z,101132.50
2023-01-01T11:33:36.926Z,101133.28
2023-01-01T11:36:08.939Z,101137.66
2023-01-01T11:38:38.890Z,101143.69
2023-01-01T11:41:11.526Z,101139.22
2023-01-01T11:43:46.881Z,101140.00
2023-01-01T11:46:25.997Z,101150.56
2023-01-01T11:48:57.274Z,101152.25
2023-01-01T11:51:35.191Z,101140.84
2023-01-01T11:54:13.833Z,101139.16
2023-01-01T11:56:46.346Z,101129.56
2023-01-01T11:59:19.595Z,101137.53
2023-01-01T12:01:52.293Z,101142.06
2023-01-01T12:04:28.688Z,101137.75
2023-01-01T12:07:03.059Z,101138.66
2023-01-01T12:09:40.397Z,101143.19
2023-01-01T12:12:21.165Z,101147.59
2023-01-01T12:14:59.101Z,101148.50
2023-01-01T12:17:35.655Z,101145.91
2023-01-01T12:20:09.596Z,101160.06
2023-01-01T12:22:39.426Z,101152.97
2023-01-01T12:25:14.894Z,101150.41
2023-01-01T12:28:03.737Z,101145.19
2023-01-01T12:30:41.989Z,101149.59
2023-01-01T12:33:24.879Z,101161.97
2023-01-01T12:36:11.197Z,101153.28
2023-01-01T12:38:54.023Z,101162.88
2023-01-01T12:41:33.725Z,101162.94
2023-01-01T12:44:19.427Z,101162.06
2023-01-01T12:46:56.569Z,101165.59
2023-01-01T12:49:41.650Z,101171.81
2023-01-01T12:52:25.474Z,101167.41
2023-01-01T12:55:25.159Z,101170.94
2023-01-01T12:58:00.652Z,101176.16
2023-01-01T13:00:35.208Z,101165.59
2023-01-01T13:03:21.405Z,101177.97
2023-01-01T13:05:54.435Z,101168.22
2023-01-01T13:08:24.176Z,101157.69
2023-01-01T13:10:57.102Z,101169.97
2023-01-01T13:13:27.040Z,101176.06
2023-01-01T13:16:00.308Z,101170.84
2023-01-01T13:18:35.149Z,101177.88
2023-01-01T13:21:10.715Z,101174.38
2023-01-01T13:23:57.631Z,101169.09
2023-01-01T13:26:41.497Z,101174.28
2023-01-01T13:29:34.435Z,101185.72
2023-01-01T13:32:09.286Z,101178.59
2023-01-01T13:35:06.011Z,101176.03
2023-01-01T13:37:49.626Z,101175.97
2023-01-01T13:41:00.682Z,101186.50
2023-01-01T13:43:32.973Z,101182.13
2023-01-01T13:46:14.252Z,101182.09
2023-01-01T13:49:22.946Z,101202.31
2023-01-01T13:52:32.700Z,101204.09
2023-01-01T13:55:45.493Z,101204.09
2023-01-01T13:58:38.928Z,101218.13
2023-01-01T14:01:40.283Z,101215.44
2023-01-01T14:04:20.221Z,101211.03
2023-01-01T14:06:53.857Z,101199.59
2023-01-01T14:09:26.975Z,101216.28
2023-01-01T14:11:56.765Z,101230.38
2023-01-01T14:14:29.489Z,101232.97
2023-01-01T14:17:03.354Z,101226.84
2023-01-01T14:19:33.123Z,101245.28
2023-01-01T14:22:03.430Z,101244.41
2023-01-01T14:24:38.394Z,101248.72
2023-01-01T14:27:09.026Z,101257.47
2023-01-01T14:29:39.054Z,101257.47
2023-01-01T14:32:17.361Z,101251.19
2023-01-01T14:34:47.518Z,101259.09
2023-01-01T14:37:26.686Z,101260.00
2023-01-01T14:40:20.911Z,101254.69
2023-01-01T14:42:52.740Z,101255.47
2023-01-01T14:45:22.603Z,101260.69
2023-01-01T14:47:55.632Z,101259.78
2023-01-01T14:50:29.667Z,101267.63
2023-01-01T14:53:06.493Z,101263.13
2023-01-01T14:55:43.433Z,101271.78
2023-01-01T14:58:16.622Z,101274.34
2023-01-01T15:00:46.398Z,101267.22
2023-01-01T15:03:18.306Z,101265.47
2023-01-01T15:05:49.727Z,101276.81
2023-01-01T15:08:25.872Z,101273.22
2023-01-01T15:10:59.626Z,101274.91
2023-01-01T15:13:31.136Z,101272.22
2023-01-01T15:16:19.801Z,101278.34
2023-01-01T15:18:50.732Z,101280.91
2023-01-01T15:21:34.860Z,101274.69
2023-01-01T15:24:07.403Z,101277.22
2023-01-01T15:26:44.366Z,101282.41
2023-01-01T15:29:19.314Z,101281.41
2023-01-01T15:31:52.585Z,101279.56
2023-01-01T15:34:27.434Z,101278.59
2023-01-01T15:36:59.573Z,101285.53
2023-01-01T15:39:33.095Z,101280.25
2023-01-01T15:42:05.434Z,101283.66
2023-01-01T15:44:38.125Z,101286.16
2023-01-01T15:47:16.794Z,101284.44
2023-01-01T15:49:46.617Z,101293.16
2023-01-01T15:52:24.420Z,101294.03
2023-01-01T15:54:54.245Z,101294.84
2023-01-01T15:57:27.960Z,101285.94
2023-01-01T15:59:58.336Z,101283.31
2023-01-01T16:02:32.498Z,101282.44
2023-01-01T16:05:02.898Z,101278.94
2023-01-01T16:07:32.698Z,101283.31
2023-01-01T16:10:02.418Z,101285.09
2023-01-01T16:12:34.755Z,101283.38
2023-01-01T16:15:04.475Z,101278.09
2023-01-01T16:17:34.289Z,101279.00
2023-01-01T16:20:04.022Z,101274.56
2023-01-01T16:22:36.807Z,101283.41
2023-01-01T16:25:15.965Z,101273.78
2023-01-01T16:27:48.709Z,101272.97
2023-01-01T16:30:18.865Z,101281.81
2023-01-01T16:32:49.296Z,101285.25
2023-01-01T16:35:19.392Z,101282.63
2023-01-01T16:37:49.104Z,101281.75
2023-01-01T16:40:18.976Z,101280.88
2023-01-01T16:42:51.442Z,101278.25
2023-01-01T16:45:21.893Z,101284.47
2023-01-01T16:47:51.656Z,101280.16
2023-01-01T16:50:21.523Z,101278.38
2023-01-01T16:52:51.262Z,101285.38
2023-01-01T16:55:21.319Z,101279.28
2023-01-01T16:58:13.917Z,101271.38
2023-01-01T17:00:43.440Z,101280.09
2023-01-01T17:03:13.241Z,101274.81
2023-01-01T17:05:44.696Z,101273.91
2023-01-01T17:08:14.803Z,101276.53
2023-01-01T17:10:44.634Z,101280.06
2023-01-01T17:13:17.079Z,101270.34
2023-01-01T17:15:46.816Z,101272.09
2023-01-01T17:18:16.607Z,101265.94
2023-01-01T17:20:46.367Z,101272.09
2023-01-01T17:23:16.079Z,101267.78
2023-01-01T17:25:45.841Z,101261.63
2023-01-01T17:28:18.183Z,101263.41
2023-01-01T17:30:48.048Z,101256.38
2023-01-01T17:33:17.794Z,101255.47
2023-01-01T17:35:47.634Z,101258.22
2023-01-01T17:38:17.359Z,101257.31
2023-01-01T17:40:47.066Z,101262.59
2023-01-01T17:43:19.406Z,101261.63
2023-01-01T17:45:49.095Z,101261.56
2023-01-01T17:48:18.895Z,101256.19
2023-01-01T17:50:48.675Z,101266.66
2023-01-01T17:53:18.431Z,101263.91
2023-01-01T17:55:48.325Z,101251.59
2023-01-01T17:58:20.730Z,101256.78
2023-01-01T18:00:50.673Z,101255.00
2023-01-01T18:03:22.856Z,101246.16
2023-01-01T18:05:52.639Z,101247.00
2023-01-01T18:08:22.431Z,101256.63
2023-01-01T18:10:56.615Z,101247.91
2023-01-01T18:13:29.840Z,101246.09
2023-01-01T18:16:03.222Z,101247.00
2023-01-01T18:18:33.231Z,101241.75
2023-01-01T18:21:05.355Z,101241.75
2023-01-01T18:23:35.665Z,101242.56
2023-01-01T18:26:06.545Z,101238.16
2023-01-01T18:28:39.212Z,101238.97
2023-01-01T18:31:10.163Z,101245.19
2023-01-01T18:33:40.120Z,101237.28
2023-01-01T18:36:12.939Z,101241.75
2023-01-01T18:38:43.878Z,101232.03
2023-01-01T18:41:32.477Z,101230.34
2023-01-01T18:44:05.477Z,101226.75
2023-01-01T18:46:37.420Z,101222.38
2023-01-01T18:49:12.265Z,101223.31
2023-01-01T18:51:42.014Z,101215.41
2023-01-01T18:54:16.728Z,101215.41
2023-01-01T18:56:47.157Z,101217.19
2023-01-01T18:59:23.891Z,101204.03
2023-01-01T19:01:53.949Z,101207.50
2023-01-01T19:04:23.811Z,101203.19
2023-01-01T19:06:53.517Z,101209.38
2023-01-01T19:09:25.410Z,101201.50
2023-01-01T19:12:00.100Z,101198.94
2023-01-01T19:14:33.674Z,101193.69
2023-01-01T19:17:03.989Z,101200.81
2023-01-01T19:19:41.629Z,101192.13
2023-01-01T19:22:24.845Z,101186.03
2023-01-01T19:24:54.566Z,101184.38
2023-01-01T19:27:27.256Z,101181.75
2023-01-01T19:29:59.671Z,101177.47
2023-01-01T19:32:29.402Z,101172.19
2023-01-01T19:34:59.153Z,101173.06
2023-01-01T19:37:28.865Z,101173.16
2023-01-01T19:39:58.571Z,101159.91
2023-01-01T19:42:28.263Z,101158.22
2023-01-01T19:45:01.037Z,101165.25
2023-01-01T19:47:30.757Z,101164.38
2023-01-01T19:50:00.486Z,101170.56
2023-01-01T19:52:30.192Z,101166.19
2023-01-01T19:54:59.907Z,101185.53
2023-01-01T19:57:29.703Z,101173.25
2023-01-01T20:00:02.495Z,101175.06
2023-01-01T20:02:48.348Z,101169.81
2023-01-01T20:05:18.707Z,101177.78
2023-01-01T20:07:48.513Z,101184.84
2023-01-01T20:10:18.434Z,101184.91
2023-01-01T20:12:48.546Z,101188.50
2023-01-01T20:15:20.881Z,101186.78
2023-01-01T20:17:50.602Z,101187.72
2023-01-01T20:20:20.801Z,101200.03
2023-01-01T20:22:50.523Z,101199.16
2023-01-01T20:25:20.605Z,101194.84
2023-01-01T20:28:02.788Z,101199.31
2023-01-01T20:30:37.306Z,101195.75
2023-01-01T20:33:07.473Z,101197.50
2023-01-01T20:35:49.406Z,101207.25
2023-01-01T20:38:19.106Z,101201.00
2023-01-01T20:40:48.895Z,101204.56
2023-01-01T20:43:18.665Z,101213.38
2023-01-01T20:45:51.068Z,101211.69
2023-01-01T20:48:20.911Z,101206.41
2023-01-01T20:50:50.670Z,101211.69
2023-01-01T20:53:20.549Z,101206.28
2023-01-01T20:55:50.370Z,101202.75
2023-01-01T20:58:20.201Z,101197.47
2023-01-01T21:00:52.766Z,101209.00
2023-01-01T21:03:22.600Z,101211.69
2023-01-01T21:05:52.400Z,101207.31
2023-01-01T21:08:22.108Z,101209.16
2023-01-01T21:10:51.832Z,101211.78
2023-01-01T21:13:23.334Z,101208.38
2023-01-01T21:16:00.515Z,101202.38
2023-01-01T21:18:32.701Z,101186.50
2023-01-01T21:21:04.470Z,101187.44
2023-01-01T21:23:34.276Z,101179.53
2023-01-01T21:26:04.017Z,101183.97
2023-01-01T21:28:36.759Z,101171.72
2023-01-01T21:31:14.313Z,101161.19
2023-01-01T21:33:45.256Z,101157.69
2023-01-01T21:36:20.551Z,101157.75
2023-01-01T21:38:51.718Z,101153.34
2023-01-01T21:41:25.199Z,101172.69
2023-01-01T21:43:57.485Z,101163.13
2023-01-01T21:46:44.485Z,101160.41
2023-01-01T21:49:20.070Z,101152.50
2023-01-01T21:51:53.485Z,101148.09
2023-01-01T21:54:28.067Z,101145.38
2023-01-01T21:57:00.330Z,101143.59
2023-01-01T21:59:39.220Z,101136.50
2023-01-01T22:02:33.420Z,101138.19
2023-01-01T22:05:05.073Z,101139.00
2023-01-01T22:10:32.544Z,101117.81
2023-01-01T22:13:03.285Z,101110.81
2023-01-01T22:15:40.899Z,101102.91
2023-01-01T22:18:24.972Z,101099.38
2023-01-01T22:20:54.907Z,101084.38
2023-01-01T22:23:38.282Z,101079.94
2023-01-01T22:26:17.199Z,101075.47
2023-01-01T22:28:49.152Z,101073.66
2023-01-01T22:31:22.090Z,101060.47
2023-01-01T22:34:00.274Z,101062.16
2023-01-01T22:36:31.977Z,101063.84
2023-01-01T22:39:05.099Z,101054.16
2023-01-01T22:41:34.927Z,101036.50
2023-01-01T22:44:07.024Z,101032.03
2023-01-01T22:46:39.331Z,101023.97
2023-01-01T22:49:19.758Z,101021.28
2023-01-01T22:51:50.884Z,101028.22
2023-01-01T22:54:20.705Z,101023.81
2023-01-01T22:56:50.472Z,101030.84
2023-01-01T22:59:20.241Z,101020.16
2023-01-01T23:01:50.122Z,101016.56
2023-01-01T23:04:22.612Z,101007.69
2023-01-01T23:06:52.424Z,101003.22
2023-01-01T23:09:22.310Z,101007.59
2023-01-01T23:11:52.124Z,101001.44
2023-01-01T23:14:38.575Z,100997.06
2023-01-01T23:17:08.951Z,100995.31
2023-01-01T23:19:41.384Z,100981.22
2023-01-01T23:22:11.224Z,100981.22
2023-01-01T23:24:41.007Z,100976.88
2023-01-01T23:27:11.283Z,100982.22
2023-01-01T23:29:40.978Z,100972.53
2023-01-01T23:32:10.708Z,100977.00
2023-01-01T23:34:43.735Z,100965.63
2023-01-01T23:37:14.150Z,100961.25
2023-01-01T23:39:43.870Z,100958.63
2023-01-01T23:42:13.614Z,100957.75
2023-01-01T23:44:44.104Z,100952.47
2023-01-01T23:47:15.342Z,100948.03
2023-01-01T23:49:47.781Z,100959.47
2023-01-01T23:52:17.582Z,100955.03
2023-01-01T23:54:47.287Z,100952.41
2023-01-01T23:57:17.019Z,100948.03
2023-01-01T23:59:46.911Z,100946.34
